This is the latest recevied weather packets stored in our database for station/object SP9KB-13. If no packets are shown the sender has not sent any weather packets the latest 10 day(s).
| Time | Temp. | Humidity | Pressure | Rain* | Wind** | Luminosity | Snow |
|---|---|---|---|---|---|---|---|
| 1778039896 | 12.78° C | 59% | 990.5 hPa | 0 mm | - | - | - |
| 1778039596 | 12.22° C | 60% | 990.7 hPa | 0 mm | - | - | - |
| 1778039296 | 11.67° C | 64% | 990.6 hPa | 0 mm | - | - | - |
| 1778038995 | 10° C | 69% | 990.6 hPa | 0 mm | - | - | - |
| 1778038694 | 10° C | 72% | 990.7 hPa | 0 mm | - | - | - |
| 1778038394 | 9.44° C | 73% | 990.7 hPa | 0 mm | - | - | - |
| 1778038093 | 9.44° C | 73% | 990.8 hPa | 0 mm | - | - | - |
| 1778037793 | 10.56° C | 70% | 990.7 hPa | 0 mm | - | - | - |
| 1778037492 | 10.56° C | 66% | 990.9 hPa | 0 mm | - | - | - |
| 1778037192 | 10.56° C | 70% | 990.8 hPa | 0 mm | - | - | - |
| 1778036891 | 11.11° C | 65% | 990.9 hPa | 0 mm | - | - | - |
| 1778036590 | 10.56° C | 69% | 990.8 hPa | 0 mm | - | - | - |
| 1778036290 | 10.56° C | 64% | 990.8 hPa | 0 mm | - | - | - |
| 1778035689 | 11.67° C | 63% | 990.7 hPa | 0 mm | - | - | - |
| 1778035088 | 11.67° C | 63% | 990.8 hPa | 0 mm | - | - | - |
| 1778034787 | 12.22° C | 62% | 990.8 hPa | 0 mm | - | - | - |
| 1778034487 | 12.78° C | 57% | 990.8 hPa | 0 mm | - | - | - |
| 1778034187 | 13.33° C | 55% | 990.6 hPa | 0 mm | - | - | - |
| 1778033886 | 13.33° C | 54% | 990.7 hPa | 0 mm | - | - | - |
| 1778033585 | 13.89° C | 53% | 990.6 hPa | 0 mm | - | - | - |
| 1778033285 | 13.89° C | 53% | 990.7 hPa | 0 mm | - | - | - |
| 1778031782 | 13.89° C | 52% | 990.7 hPa | 0 mm | - | - | - |
| 1778031481 | 13.89° C | 51% | 990.7 hPa | 0 mm | - | - | - |
| 1778030580 | 13.89° C | 52% | 990.9 hPa | 0 mm | - | - | - |
| 1778028777 | 12.22° C | 58% | 990.8 hPa | 0 mm | - | - | - |
* Rain latest hour (hover to see other rain measurements)
** Current wind speed in m/s (hover to see current wind gust speed)